createdAt,value
2023-04-24T00:02:02.650Z,11.60
2023-04-24T00:04:30.403Z,11.60
2023-04-24T00:06:58.354Z,11.70
2023-04-24T00:09:25.573Z,11.70
2023-04-24T00:11:52.721Z,11.60
2023-04-24T00:14:19.709Z,11.50
2023-04-24T00:16:46.721Z,11.50
2023-04-24T00:19:13.709Z,11.50
2023-04-24T00:21:42.021Z,11.60
2023-04-24T00:24:12.192Z,11.50
2023-04-24T00:26:39.130Z,11.50
2023-04-24T00:29:06.120Z,11.60
2023-04-24T00:31:35.834Z,11.60
2023-04-24T00:34:03.948Z,11.70
2023-04-24T00:36:31.847Z,11.70
2023-04-24T00:38:59.784Z,11.70
2023-04-24T00:41:26.904Z,11.70
2023-04-24T00:43:54.063Z,11.70
2023-04-24T00:46:22.142Z,11.60
2023-04-24T00:48:49.366Z,11.60
2023-04-24T00:51:16.850Z,11.70
2023-04-24T00:53:43.823Z,11.70
2023-04-24T00:56:11.276Z,11.70
2023-04-24T00:58:38.411Z,11.70
2023-04-24T01:01:08.208Z,11.60
2023-04-24T01:03:38.189Z,11.70
2023-04-24T01:06:06.320Z,11.70
2023-04-24T01:08:35.914Z,11.70
2023-04-24T01:11:06.038Z,11.80
2023-04-24T01:13:34.011Z,11.70
2023-04-24T01:16:01.940Z,11.70
2023-04-24T01:18:29.322Z,11.70
2023-04-24T01:21:00.516Z,11.70
2023-04-24T01:23:27.973Z,11.70
2023-04-24T01:25:55.625Z,11.60
2023-04-24T01:28:23.223Z,11.70
2023-04-24T01:30:50.780Z,11.80
2023-04-24T01:33:18.368Z,11.70
2023-04-24T01:35:45.696Z,11.70
2023-04-24T01:38:12.892Z,11.70
2023-04-24T01:40:39.974Z,11.70
2023-04-24T01:43:07.142Z,11.60
2023-04-24T01:45:34.281Z,11.70
2023-04-24T01:48:02.071Z,11.60
2023-04-24T01:50:29.613Z,11.60
2023-04-24T01:52:56.651Z,11.70
2023-04-24T01:55:24.412Z,11.60
2023-04-24T01:57:53.542Z,11.60
2023-04-24T02:00:20.522Z,11.50
2023-04-24T02:02:48.717Z,11.50
2023-04-24T02:05:16.169Z,11.50
2023-04-24T02:07:43.292Z,11.50
2023-04-24T02:10:11.419Z,11.40
2023-04-24T02:12:43.072Z,11.50
2023-04-24T02:15:10.818Z,11.50
2023-04-24T02:17:39.129Z,11.50
2023-04-24T02:20:07.954Z,11.50
2023-04-24T02:22:34.907Z,11.50
2023-04-24T02:25:02.943Z,11.50
2023-04-24T02:27:29.990Z,11.50
2023-04-24T02:29:57.688Z,11.50
2023-04-24T02:32:24.815Z,11.50
2023-04-24T02:34:51.796Z,11.50
2023-04-24T02:37:18.754Z,11.50
2023-04-24T02:39:45.774Z,11.50
2023-04-24T02:42:12.970Z,11.50
2023-04-24T02:44:39.928Z,11.40
2023-04-24T02:47:06.971Z,11.40
2023-04-24T02:49:34.093Z,11.50
2023-04-24T02:52:01.028Z,11.50
2023-04-24T02:54:27.973Z,11.50
2023-04-24T02:56:55.019Z,11.50
2023-04-24T02:59:22.044Z,11.60
2023-04-24T03:01:49.166Z,11.60
2023-04-24T03:04:16.796Z,11.50
2023-04-24T03:06:44.055Z,11.50
2023-04-24T03:09:11.531Z,11.40
2023-04-24T03:11:38.540Z,11.20
2023-04-24T03:14:05.643Z,11.10
2023-04-24T03:16:34.113Z,10.90
2023-04-24T03:19:01.251Z,10.80
2023-04-24T03:21:31.964Z,10.80
2023-04-24T03:24:00.028Z,10.70
2023-04-24T03:26:27.164Z,10.60
2023-04-24T03:29:05.825Z,10.70
2023-04-24T03:31:32.843Z,10.70
2023-04-24T03:33:59.901Z,10.70
2023-04-24T03:36:27.257Z,10.70
2023-04-24T03:38:55.327Z,10.70
2023-04-24T03:41:28.693Z,10.80
2023-04-24T03:44:15.932Z,10.80
2023-04-24T03:46:43.259Z,10.80
2023-04-24T03:49:10.552Z,10.80
2023-04-24T03:51:41.638Z,10.80
2023-04-24T03:54:18.495Z,10.80
2023-04-24T03:56:46.637Z,10.80
2023-04-24T03:59:14.478Z,10.80
2023-04-24T04:01:44.175Z,10.80
2023-04-24T04:04:15.563Z,10.80
2023-04-24T04:06:45.166Z,10.80
2023-04-24T04:09:12.546Z,10.80
2023-04-24T04:11:39.649Z,10.80
2023-04-24T04:14:07.028Z,10.80
2023-04-24T04:16:37.382Z,10.90
2023-04-24T04:19:06.453Z,10.80
2023-04-24T04:21:33.503Z,10.80
2023-04-24T04:24:32.476Z,10.80
2023-04-24T04:27:00.324Z,10.80
2023-04-24T04:29:35.610Z,10.80
2023-04-24T04:32:05.115Z,10.90
2023-04-24T04:34:32.702Z,10.90
2023-04-24T04:37:02.634Z,10.90
2023-04-24T04:39:40.311Z,11.00
2023-04-24T04:42:11.653Z,11.20
2023-04-24T04:44:43.757Z,11.10
2023-04-24T04:47:17.164Z,10.50
2023-04-24T04:49:45.121Z,9.90
2023-04-24T04:52:26.266Z,9.60
2023-04-24T04:54:59.247Z,9.40
2023-04-24T04:57:35.899Z,9.20
2023-04-24T05:00:03.033Z,9.20
2023-04-24T05:02:42.548Z,9.10
2023-04-24T05:05:10.318Z,9.10
2023-04-24T05:07:37.666Z,9.10
2023-04-24T05:10:06.124Z,9.10
2023-04-24T05:12:33.078Z,9.10
2023-04-24T05:15:01.000Z,9.20
2023-04-24T05:17:28.249Z,9.20
2023-04-24T05:19:56.452Z,9.30
2023-04-24T05:22:24.865Z,9.30
2023-04-24T05:24:52.954Z,9.30
2023-04-24T05:27:39.020Z,9.40
2023-04-24T05:30:11.871Z,9.50
2023-04-24T05:32:38.848Z,9.50
2023-04-24T05:35:06.701Z,9.60
2023-04-24T05:37:33.789Z,9.60
2023-04-24T05:40:00.989Z,9.70
2023-04-24T05:42:28.040Z,9.80
2023-04-24T05:44:57.841Z,9.80
2023-04-24T05:47:25.047Z,9.90
2023-04-24T05:49:54.256Z,9.90
2023-04-24T05:52:21.415Z,10.00
2023-04-24T05:54:49.587Z,10.00
2023-04-24T05:57:21.658Z,10.10
2023-04-24T05:59:54.790Z,10.10
2023-04-24T06:02:23.245Z,10.00
2023-04-24T06:04:50.612Z,9.90
2023-04-24T06:07:18.577Z,9.90
2023-04-24T06:09:45.845Z,9.80
2023-04-24T06:12:12.868Z,9.80
2023-04-24T06:14:57.633Z,9.70
2023-04-24T06:17:32.890Z,9.80
2023-04-24T06:19:59.956Z,9.90
2023-04-24T06:22:26.910Z,10.00
2023-04-24T06:24:53.862Z,10.10
2023-04-24T06:27:20.794Z,10.30
2023-04-24T06:29:55.153Z,10.20
2023-04-24T06:32:25.935Z,10.20
2023-04-24T06:34:53.888Z,10.10
2023-04-24T06:37:24.262Z,10.20
2023-04-24T06:39:51.224Z,10.90
2023-04-24T06:42:18.207Z,11.70
2023-04-24T06:44:46.026Z,12.50
2023-04-24T06:47:14.622Z,13.70
2023-04-24T06:49:42.114Z,15.10
2023-04-24T06:52:09.507Z,15.90
2023-04-24T06:54:36.557Z,16.30
2023-04-24T06:57:04.100Z,16.30
2023-04-24T06:59:31.637Z,15.70
2023-04-24T07:01:59.108Z,15.30
2023-04-24T07:04:26.667Z,14.70
2023-04-24T07:06:56.861Z,14.50
2023-04-24T07:09:26.312Z,14.20
2023-04-24T07:11:54.454Z,13.80
2023-04-24T07:14:22.004Z,13.50
2023-04-24T07:16:49.628Z,13.20
2023-04-24T07:19:16.606Z,13.10
2023-04-24T07:21:43.587Z,13.10
2023-04-24T07:24:11.797Z,13.20
2023-04-24T07:26:40.273Z,13.30
2023-04-24T07:29:08.365Z,13.40
2023-04-24T07:31:35.476Z,13.60
2023-04-24T07:34:02.838Z,13.60
2023-04-24T07:36:29.915Z,13.50
2023-04-24T07:38:57.993Z,13.40
2023-04-24T07:41:25.548Z,13.00
2023-04-24T07:43:54.562Z,12.80
2023-04-24T07:46:22.161Z,12.60
2023-04-24T07:48:58.664Z,12.30
2023-04-24T07:51:34.603Z,12.00
2023-04-24T07:54:02.083Z,11.70
2023-04-24T07:56:32.196Z,11.60
2023-04-24T07:58:59.469Z,11.80
2023-04-24T08:01:26.500Z,12.30
2023-04-24T08:03:53.619Z,13.00
2023-04-24T08:06:20.817Z,13.60
2023-04-24T08:08:47.810Z,13.90
2023-04-24T08:11:14.890Z,13.60
2023-04-24T08:13:41.835Z,13.40
2023-04-24T08:16:08.868Z,12.90
2023-04-24T08:18:36.947Z,12.30
2023-04-24T08:21:04.275Z,11.80
2023-04-24T08:23:31.181Z,12.10
2023-04-24T08:25:58.768Z,12.20
2023-04-24T08:28:26.856Z,12.20
2023-04-24T08:30:55.783Z,12.20
2023-04-24T08:33:24.518Z,12.40
2023-04-24T08:35:51.623Z,12.70
2023-04-24T08:38:18.629Z,12.60
2023-04-24T08:40:47.189Z,12.30
2023-04-24T08:43:15.086Z,12.00
2023-04-24T08:45:42.145Z,12.60
2023-04-24T08:48:19.685Z,13.30
2023-04-24T08:50:48.427Z,13.50
2023-04-24T08:53:16.472Z,13.70
2023-04-24T08:55:48.355Z,13.90
2023-04-24T08:58:17.691Z,14.30
2023-04-24T09:00:47.974Z,14.60
2023-04-24T09:03:18.524Z,14.70
2023-04-24T09:05:49.706Z,14.10
2023-04-24T09:08:20.116Z,14.10
2023-04-24T09:10:49.218Z,14.40
2023-04-24T09:13:20.220Z,14.40
2023-04-24T09:15:47.583Z,14.70
2023-04-24T09:18:14.946Z,14.30
2023-04-24T09:21:21.889Z,14.40
2023-04-24T09:24:00.583Z,14.40
2023-04-24T09:26:32.303Z,13.70
2023-04-24T09:29:00.364Z,13.30
2023-04-24T09:31:29.723Z,13.30
2023-04-24T09:34:08.574Z,13.40
2023-04-24T09:36:39.216Z,13.30
2023-04-24T09:39:12.133Z,13.50
2023-04-24T09:41:48.876Z,13.60
2023-04-24T09:44:20.376Z,13.50
2023-04-24T09:46:55.623Z,13.40
2023-04-24T09:49:28.737Z,12.90
2023-04-24T09:52:13.026Z,12.60
2023-04-24T09:54:40.912Z,12.60
2023-04-24T09:57:11.065Z,12.70
2023-04-24T09:59:45.708Z,12.70
2023-04-24T10:02:21.038Z,12.70
2023-04-24T10:04:58.131Z,13.20
2023-04-24T10:07:27.496Z,13.50
2023-04-24T10:09:55.679Z,13.50
2023-04-24T10:12:24.056Z,13.60
2023-04-24T10:14:52.441Z,13.80
2023-04-24T10:17:21.823Z,13.70
2023-04-24T10:19:49.364Z,13.60
2023-04-24T10:22:18.704Z,13.50
2023-04-24T10:24:48.542Z,13.50
2023-04-24T10:27:16.600Z,13.40
2023-04-24T10:29:45.863Z,13.10
2023-04-24T10:32:12.920Z,13.00
2023-04-24T10:34:39.978Z,12.90
2023-04-24T10:37:07.247Z,12.80
2023-04-24T10:39:34.644Z,12.80
2023-04-24T10:42:01.789Z,12.70
2023-04-24T10:44:37.832Z,12.50
2023-04-24T10:47:05.150Z,12.40
2023-04-24T10:49:33.274Z,12.10
2023-04-24T10:52:08.034Z,12.10
2023-04-24T10:54:43.387Z,12.20
2023-04-24T10:57:23.007Z,12.10
2023-04-24T10:59:52.245Z,12.20
2023-04-24T11:02:19.853Z,12.20
2023-04-24T11:04:47.639Z,12.30
2023-04-24T11:07:15.047Z,12.30
2023-04-24T11:09:44.207Z,12.30
2023-04-24T11:12:14.800Z,12.10
2023-04-24T11:14:57.635Z,12.00
2023-04-24T11:17:39.236Z,12.00
2023-04-24T11:20:26.168Z,12.30
2023-04-24T11:22:56.178Z,12.40
2023-04-24T11:25:24.051Z,12.60
2023-04-24T11:27:51.636Z,12.70
2023-04-24T11:30:20.972Z,13.00
2023-04-24T11:32:52.697Z,13.30
2023-04-24T11:35:25.813Z,14.00
2023-04-24T11:40:25.928Z,14.50
2023-04-24T11:42:56.547Z,14.00
2023-04-24T11:45:30.891Z,13.70
2023-04-24T11:47:59.851Z,13.10
2023-04-24T11:50:28.879Z,13.20
2023-04-24T11:52:56.815Z,13.40
2023-04-24T11:55:29.623Z,13.40
2023-04-24T11:57:59.933Z,13.40
2023-04-24T12:00:30.299Z,13.30
2023-04-24T12:03:10.896Z,13.20
2023-04-24T12:05:39.040Z,13.20
2023-04-24T12:08:07.367Z,13.20
2023-04-24T12:10:36.023Z,12.90
2023-04-24T12:13:03.523Z,12.90
2023-04-24T12:15:30.812Z,12.80
2023-04-24T12:17:58.534Z,12.70
2023-04-24T12:20:31.475Z,12.50
2023-04-24T12:23:01.113Z,12.40
2023-04-24T12:25:33.674Z,12.50
2023-04-24T12:28:07.360Z,12.70
2023-04-24T12:30:39.838Z,12.70
2023-04-24T12:33:06.990Z,12.50
2023-04-24T12:35:36.531Z,12.50
2023-04-24T12:38:14.766Z,12.70
2023-04-24T12:40:43.287Z,12.60
2023-04-24T12:43:21.114Z,12.60
2023-04-24T12:45:50.925Z,12.70
2023-04-24T12:48:17.996Z,13.00
2023-04-24T12:50:46.752Z,13.00
2023-04-24T12:53:14.914Z,13.10
2023-04-24T12:55:41.884Z,13.00
2023-04-24T12:58:09.200Z,12.80
2023-04-24T13:00:36.299Z,12.70
2023-04-24T13:03:04.217Z,12.50
2023-04-24T13:05:31.776Z,12.40
2023-04-24T13:07:59.196Z,12.00
2023-04-24T13:10:26.244Z,11.70
2023-04-24T13:12:53.311Z,11.60
2023-04-24T13:15:20.392Z,11.60
2023-04-24T13:17:47.435Z,11.60
2023-04-24T13:20:14.568Z,11.80
2023-04-24T13:22:41.892Z,12.00
2023-04-24T13:25:09.868Z,12.20
2023-04-24T13:27:38.782Z,12.50
2023-04-24T13:30:06.782Z,12.70
2023-04-24T13:32:34.706Z,12.90
2023-04-24T13:35:01.807Z,13.00
2023-04-24T13:37:28.799Z,13.10
2023-04-24T13:39:55.807Z,13.40
2023-04-24T13:42:22.780Z,13.80
2023-04-24T13:44:49.730Z,14.20
2023-04-24T13:47:16.755Z,14.10
2023-04-24T13:49:43.757Z,13.80
2023-04-24T13:52:11.603Z,13.40
2023-04-24T13:54:38.551Z,13.00
2023-04-24T13:57:05.739Z,12.90
2023-04-24T13:59:32.780Z,13.20
2023-04-24T14:01:59.810Z,13.50
2023-04-24T14:04:27.066Z,13.50
2023-04-24T14:06:54.423Z,13.20
2023-04-24T14:09:21.458Z,13.00
2023-04-24T14:11:48.481Z,12.80
2023-04-24T14:14:15.532Z,12.60
2023-04-24T14:16:42.571Z,12.40
2023-04-24T14:19:09.752Z,12.30
2023-04-24T14:21:36.959Z,12.30
2023-04-24T14:24:04.067Z,12.30
2023-04-24T14:26:32.257Z,12.30
2023-04-24T14:29:11.458Z,12.40
2023-04-24T14:31:42.578Z,12.50
2023-04-24T14:34:10.364Z,12.60
2023-04-24T14:36:37.356Z,12.70
2023-04-24T14:39:07.564Z,12.70
2023-04-24T14:41:36.777Z,12.90
2023-04-24T14:44:05.091Z,12.70
2023-04-24T14:46:32.598Z,12.80
2023-04-24T14:48:59.915Z,12.70
2023-04-24T14:51:26.914Z,12.60
2023-04-24T14:53:54.184Z,12.50
2023-04-24T14:56:21.273Z,12.30
2023-04-24T14:58:48.351Z,12.30
2023-04-24T15:01:16.817Z,12.40
2023-04-24T15:03:45.268Z,12.50
2023-04-24T15:06:12.810Z,12.70
2023-04-24T15:08:39.788Z,12.80
2023-04-24T15:11:07.051Z,13.10
2023-04-24T15:13:34.051Z,13.20
2023-04-24T15:16:01.412Z,13.40
2023-04-24T15:18:29.869Z,13.40
2023-04-24T15:20:57.540Z,13.40
2023-04-24T15:23:24.529Z,13.60
2023-04-24T15:25:51.581Z,13.80
2023-04-24T15:28:18.929Z,13.70
2023-04-24T15:30:46.029Z,13.50
2023-04-24T15:33:13.052Z,13.10
2023-04-24T15:35:40.165Z,13.20
2023-04-24T15:38:07.213Z,13.20
2023-04-24T15:40:34.383Z,13.10
2023-04-24T15:43:01.427Z,12.80
2023-04-24T15:45:28.467Z,12.60
2023-04-24T15:47:56.206Z,12.70
2023-04-24T15:50:23.922Z,12.60
2023-04-24T15:52:50.999Z,12.50
2023-04-24T15:55:18.145Z,12.50
2023-04-24T15:57:45.307Z,12.50
2023-04-24T16:00:13.778Z,12.40
2023-04-24T16:02:41.189Z,12.50
2023-04-24T16:05:08.861Z,12.60
2023-04-24T16:07:36.248Z,12.70
2023-04-24T16:10:03.462Z,12.90
2023-04-24T16:12:30.831Z,13.00
2023-04-24T16:14:58.164Z,13.00
2023-04-24T16:17:25.210Z,12.90
2023-04-24T16:19:52.209Z,12.80
2023-04-24T16:22:19.143Z,12.70
2023-04-24T16:24:47.999Z,12.50
2023-04-24T16:27:15.721Z,12.50
2023-04-24T16:29:42.824Z,12.50
2023-04-24T16:32:11.059Z,12.20
2023-04-24T16:34:38.139Z,11.90
2023-04-24T16:37:06.628Z,11.80
2023-04-24T16:39:34.962Z,11.80
2023-04-24T16:42:02.028Z,11.70
2023-04-24T16:44:29.053Z,11.60
2023-04-24T16:46:56.855Z,11.50
2023-04-24T16:49:24.098Z,11.50
2023-04-24T16:51:51.363Z,11.60
2023-04-24T16:54:18.435Z,11.70
2023-04-24T16:56:45.610Z,11.70
2023-04-24T16:59:12.603Z,11.80
2023-04-24T17:01:39.883Z,11.80
2023-04-24T17:04:07.117Z,11.80
2023-04-24T17:06:34.352Z,11.80
2023-04-24T17:09:02.662Z,11.90
2023-04-24T17:11:31.195Z,11.90
2023-04-24T17:14:01.447Z,11.90
2023-04-24T17:16:29.256Z,11.90
2023-04-24T17:18:56.312Z,11.90
2023-04-24T17:21:23.660Z,11.80
2023-04-24T17:23:50.945Z,11.80
2023-04-24T17:26:17.974Z,11.70
2023-04-24T17:28:44.949Z,11.70
2023-04-24T17:31:12.256Z,11.70
2023-04-24T17:33:39.411Z,11.60
2023-04-24T17:36:07.284Z,11.70
2023-04-24T17:38:34.578Z,11.60
2023-04-24T17:41:01.665Z,11.60
2023-04-24T17:43:28.736Z,11.60
2023-04-24T17:45:56.460Z,11.60
2023-04-24T17:48:23.697Z,11.60
2023-04-24T17:50:50.773Z,11.60
2023-04-24T17:53:21.580Z,11.60
2023-04-24T17:55:48.916Z,11.60
2023-04-24T17:58:16.062Z,11.60
2023-04-24T18:00:43.110Z,11.60
2023-04-24T18:03:10.592Z,11.50
2023-04-24T18:05:38.997Z,11.50
2023-04-24T18:08:06.325Z,11.50
2023-04-24T18:10:36.431Z,11.50
2023-04-24T18:13:04.914Z,11.50
2023-04-24T18:15:32.445Z,11.50
2023-04-24T18:17:59.522Z,11.50
2023-04-24T18:20:27.306Z,11.50
2023-04-24T18:22:54.437Z,11.50
2023-04-24T18:25:26.725Z,11.50
2023-04-24T18:27:55.759Z,11.50
2023-04-24T18:30:24.552Z,11.40
2023-04-24T18:32:53.369Z,11.50
2023-04-24T18:35:21.512Z,11.40
2023-04-24T18:37:49.277Z,11.40
2023-04-24T18:40:17.158Z,11.30
2023-04-24T18:42:44.895Z,11.30
2023-04-24T18:45:14.579Z,11.30
2023-04-24T18:47:42.873Z,11.30
2023-04-24T18:50:11.027Z,11.20
2023-04-24T18:52:38.121Z,11.20
2023-04-24T18:55:06.886Z,11.20
2023-04-24T18:57:34.945Z,11.20
2023-04-24T19:00:02.449Z,11.20
2023-04-24T19:02:29.582Z,11.20
2023-04-24T19:04:56.583Z,11.20
2023-04-24T19:07:23.565Z,11.20
2023-04-24T19:09:50.608Z,11.20
2023-04-24T19:12:17.578Z,11.20
2023-04-24T19:14:46.035Z,11.20
2023-04-24T19:17:13.052Z,11.20
2023-04-24T19:19:40.108Z,11.20
2023-04-24T19:22:07.746Z,11.20
2023-04-24T19:24:34.904Z,11.20
2023-04-24T19:27:02.154Z,11.20
2023-04-24T19:29:29.099Z,11.20
2023-04-24T19:31:58.103Z,11.20
2023-04-24T19:34:26.216Z,11.20
2023-04-24T19:36:53.321Z,11.20
2023-04-24T19:39:20.619Z,11.20
2023-04-24T19:41:47.814Z,11.20
2023-04-24T19:44:15.602Z,11.20
2023-04-24T19:46:43.389Z,11.20
2023-04-24T19:49:10.590Z,11.20
2023-04-24T19:51:38.618Z,11.20
2023-04-24T19:54:06.379Z,11.10
2023-04-24T19:56:33.820Z,11.10
2023-04-24T19:59:01.105Z,11.10
2023-04-24T20:01:28.654Z,11.10
2023-04-24T20:03:56.375Z,11.00
2023-04-24T20:06:23.644Z,11.00
2023-04-24T20:08:50.992Z,11.00
2023-04-24T20:11:18.148Z,11.10
2023-04-24T20:13:45.606Z,11.10
2023-04-24T20:16:12.784Z,11.20
2023-04-24T20:18:39.906Z,11.10
2023-04-24T20:21:06.968Z,11.20
2023-04-24T20:23:34.238Z,11.20
2023-04-24T20:26:01.815Z,11.20
2023-04-24T20:28:30.387Z,11.10
2023-04-24T20:33:28.016Z,11.00
2023-04-24T20:35:55.655Z,11.00
2023-04-24T20:38:24.416Z,10.90
2023-04-24T20:40:57.132Z,10.80
2023-04-24T20:43:28.711Z,10.80
2023-04-24T20:45:58.627Z,10.70
2023-04-24T20:48:26.563Z,10.70
2023-04-24T20:50:54.027Z,10.50
2023-04-24T20:53:21.184Z,10.30
2023-04-24T20:55:48.571Z,10.40
2023-04-24T20:58:18.578Z,10.40
2023-04-24T21:00:46.851Z,10.40
2023-04-24T21:03:14.123Z,10.40
2023-04-24T21:05:41.203Z,10.40
2023-04-24T21:08:08.252Z,10.40
2023-04-24T21:10:35.279Z,10.40
2023-04-24T21:13:02.348Z,10.40
2023-04-24T21:15:29.604Z,10.10
2023-04-24T21:17:57.045Z,10.00
2023-04-24T21:20:24.628Z,9.90
2023-04-24T21:22:51.495Z,9.90
2023-04-24T21:25:18.455Z,9.90
2023-04-24T21:27:45.450Z,9.80
2023-04-24T21:30:13.083Z,9.90
2023-04-24T21:32:40.762Z,9.90
2023-04-24T21:35:09.122Z,9.80
2023-04-24T21:37:37.807Z,9.80
2023-04-24T21:40:05.708Z,9.80
2023-04-24T21:42:32.782Z,9.70
2023-04-24T21:44:59.811Z,9.70
2023-04-24T21:47:26.806Z,9.70
2023-04-24T21:49:53.835Z,9.70
2023-04-24T21:52:20.755Z,9.70
2023-04-24T21:54:47.755Z,9.70
2023-04-24T21:57:14.928Z,9.70
2023-04-24T21:59:42.164Z,9.70
2023-04-24T22:02:09.198Z,9.60
2023-04-24T22:04:36.244Z,9.60
2023-04-24T22:07:03.279Z,9.60
2023-04-24T22:09:30.405Z,9.60
2023-04-24T22:11:57.456Z,9.60
2023-04-24T22:14:24.465Z,9.60
2023-04-24T22:16:51.435Z,9.60
2023-04-24T22:19:18.511Z,9.50
2023-04-24T22:21:45.845Z,9.60
2023-04-24T22:24:12.782Z,9.60
2023-04-24T22:26:39.785Z,9.60
2023-04-24T22:29:06.737Z,9.60
2023-04-24T22:31:34.441Z,9.70
2023-04-24T22:34:01.468Z,9.70
2023-04-24T22:36:28.553Z,9.80
2023-04-24T22:38:55.815Z,9.80
2023-04-24T22:41:22.925Z,9.80
2023-04-24T22:43:50.285Z,9.80
2023-04-24T22:46:17.867Z,9.80
2023-04-24T22:48:45.774Z,9.80
2023-04-24T22:51:12.828Z,9.80
2023-04-24T22:53:39.890Z,9.80
2023-04-24T22:56:07.301Z,9.80
2023-04-24T22:58:34.268Z,9.80
2023-04-24T23:01:01.378Z,9.80
2023-04-24T23:03:28.684Z,9.80
2023-04-24T23:05:55.833Z,9.70
2023-04-24T23:08:22.850Z,9.70
2023-04-24T23:10:49.858Z,9.70
2023-04-24T23:13:17.221Z,9.70
2023-04-24T23:15:44.212Z,9.70
2023-04-24T23:18:12.408Z,9.70
2023-04-24T23:20:39.620Z,9.60
2023-04-24T23:23:06.569Z,9.50
2023-04-24T23:25:33.641Z,9.40
2023-04-24T23:28:00.811Z,9.40
2023-04-24T23:30:27.909Z,9.30
2023-04-24T23:32:54.875Z,9.30
2023-04-24T23:35:21.977Z,9.30
2023-04-24T23:37:48.926Z,9.30
2023-04-24T23:40:15.920Z,9.20
2023-04-24T23:42:42.912Z,9.20
2023-04-24T23:45:11.090Z,9.20
2023-04-24T23:47:38.365Z,9.10
2023-04-24T23:50:06.112Z,9.10
2023-04-24T23:52:35.221Z,9.10
2023-04-24T23:55:06.489Z,9.10
2023-04-24T23:57:33.506Z,9.20
